Time;durP1;ratioP1;P1;durP2;ratioP2;P2;SDS_P1;SDS_P2;PMS_P1;PMS_P2;Temp;Humidity;BMP_temperature;BMP_pressure;BME280_temperature;BME280_humidity;BME280_pressure;Samples;Min_cycle;Max_cycle;Signal;HPM_P1;HPM_P2
2023/08/27 00:00:49;;;;;;;9.67;4.20;;;16.20;99.90;;;;;;5089095;28;20185;-68
2023/08/27 00:03:14;;;;;;;7.30;4.60;;;16.20;99.90;;;;;;5089041;28;20189;-68
2023/08/27 00:05:43;;;;;;;8.53;4.00;;;16.30;99.90;;;;;;5088881;28;20205;-67
2023/08/27 00:08:10;;;;;;;10.27;4.47;;;16.20;99.90;;;;;;5089055;28;20217;-68
2023/08/27 00:10:35;;;;;;;16.23;5.00;;;16.10;99.90;;;;;;5088845;28;20793;-67
2023/08/27 00:13:01;;;;;;;4.60;3.87;;;16.00;99.90;;;;;;5088852;28;20435;-68
2023/08/27 00:15:27;;;;;;;6.50;4.73;;;16.00;99.90;;;;;;5088631;28;20300;-68
2023/08/27 00:17:52;;;;;;;10.20;4.60;;;16.10;99.90;;;;;;5087651;28;20668;-68
2023/08/27 00:20:18;;;;;;;11.60;4.80;;;16.10;99.90;;;;;;5088786;28;20280;-68
2023/08/27 00:22:44;;;;;;;9.80;4.70;;;16.00;99.90;;;;;;5087429;28;20188;-68
2023/08/27 00:25:09;;;;;;;10.87;4.20;;;16.00;99.90;;;;;;5088704;28;20201;-68
2023/08/27 00:27:35;;;;;;;11.40;5.20;;;15.90;99.90;;;;;;5088608;28;20234;-68
2023/08/27 00:30:04;;;;;;;6.93;4.40;;;15.80;99.90;;;;;;5087021;28;20188;-68
2023/08/27 00:32:31;;;;;;;8.63;5.00;;;15.80;99.90;;;;;;5088614;28;20205;-68
2023/08/27 00:34:57;;;;;;;5.20;4.27;;;15.90;99.90;;;;;;5086868;28;20450;-67
2023/08/27 00:37:22;;;;;;;14.30;5.30;;;16.00;99.90;;;;;;5088512;28;20427;-67
2023/08/27 00:39:48;;;;;;;7.70;4.30;;;16.00;99.90;;;;;;5088491;28;20205;-68
2023/08/27 00:42:13;;;;;;;6.53;4.60;;;16.00;99.90;;;;;;5088396;28;20178;-68
2023/08/27 00:44:39;;;;;;;7.87;4.50;;;16.00;99.90;;;;;;5088552;28;20285;-68
2023/08/27 00:47:05;;;;;;;10.23;4.73;;;16.10;99.90;;;;;;5088482;28;20673;-68
2023/08/27 00:49:32;;;;;;;10.23;3.60;;;16.10;99.90;;;;;;5088401;28;20189;-68
2023/08/27 00:51:59;;;;;;;8.10;3.87;;;16.20;99.90;;;;;;5088382;28;20468;-68
2023/08/27 00:54:26;;;;;;;6.63;3.63;;;16.30;99.90;;;;;;5088120;28;20966;-68
2023/08/27 00:56:51;;;;;;;5.33;3.97;;;16.30;99.90;;;;;;5088321;28;20435;-68
2023/08/27 00:59:17;;;;;;;7.50;4.30;;;16.40;99.90;;;;;;5088218;28;20850;-68
2023/08/27 01:01:43;;;;;;;6.23;3.97;;;16.40;99.90;;;;;;5088175;28;20664;-68
2023/08/27 01:04:09;;;;;;;7.50;4.03;;;16.40;99.90;;;;;;5088429;28;20198;-68
2023/08/27 01:06:35;;;;;;;18.67;3.83;;;16.50;99.90;;;;;;5088408;28;20216;-69
2023/08/27 01:09:20;;;;;;;5.80;3.87;;;16.50;99.90;;;;;;5087271;28;20186;-69
2023/08/27 01:12:09;;;;;;;4.77;3.77;;;16.60;99.90;;;;;;5091373;28;20471;-68
2023/08/27 01:14:36;;;;;;;6.60;4.33;;;16.50;99.90;;;;;;5092682;28;20440;-69
2023/08/27 01:17:07;;;;;;;8.10;4.40;;;16.50;99.90;;;;;;5092666;28;20926;-67
2023/08/27 01:19:34;;;;;;;13.77;4.83;;;16.60;99.90;;;;;;5092720;28;20497;-68
2023/08/27 01:21:59;;;;;;;8.30;4.00;;;16.50;99.90;;;;;;5092729;28;20522;-68
2023/08/27 01:24:25;;;;;;;11.53;5.07;;;16.60;99.90;;;;;;5091077;28;20526;-69
2023/08/27 01:27:05;;;;;;;6.40;4.10;;;16.60;99.90;;;;;;5092894;28;20184;-69
2023/08/27 01:29:45;;;;;;;9.80;5.23;;;16.60;99.90;;;;;;5092442;28;20569;-67
2023/08/27 01:32:15;;;;;;;6.43;4.57;;;16.70;99.90;;;;;;5092455;28;20506;-68
2023/08/27 01:34:42;;;;;;;7.27;4.80;;;16.60;99.90;;;;;;5092056;28;20461;-67
2023/08/27 01:37:10;;;;;;;10.13;4.77;;;16.70;99.90;;;;;;5090591;28;20434;-67
2023/08/27 01:39:36;;;;;;;7.40;4.97;;;16.80;99.90;;;;;;5092010;28;20599;-68
2023/08/27 01:42:01;;;;;;;10.60;5.33;;;16.60;99.90;;;;;;5092104;28;20928;-67
2023/08/27 01:44:27;;;;;;;12.43;6.23;;;16.70;99.90;;;;;;5091141;28;20209;-67
2023/08/27 01:46:53;;;;;;;8.23;5.50;;;16.70;99.90;;;;;;5092552;28;20231;-67
2023/08/27 01:49:18;;;;;;;6.60;4.93;;;16.60;99.90;;;;;;5092211;28;20188;-68
2023/08/27 01:51:44;;;;;;;5.63;5.13;;;16.60;99.90;;;;;;5092234;28;20211;-68
2023/08/27 01:54:09;;;;;;;5.30;4.23;;;16.60;99.90;;;;;;5092220;28;20250;-66
2023/08/27 01:56:35;;;;;;;9.13;5.30;;;16.70;99.90;;;;;;5091060;28;20181;-66
2023/08/27 01:59:01;;;;;;;5.33;4.87;;;16.70;99.90;;;;;;5092548;28;20284;-69
2023/08/27 02:01:26;;;;;;;10.23;5.30;;;16.70;99.90;;;;;;5092263;28;20185;-67
2023/08/27 02:03:53;;;;;;;8.27;5.77;;;16.70;99.90;;;;;;5092461;28;20185;-67
2023/08/27 02:06:18;;;;;;;7.27;5.47;;;16.80;99.90;;;;;;5092290;28;20213;-67
2023/08/27 02:08:44;;;;;;;13.23;5.37;;;16.70;99.90;;;;;;5092053;28;20903;-67
2023/08/27 02:11:09;;;;;;;35.33;6.50;;;16.80;99.90;;;;;;5090384;28;20189;-66
2023/08/27 02:13:35;;;;;;;7.30;5.57;;;16.80;99.90;;;;;;5091937;28;20180;-67
2023/08/27 02:16:00;;;;;;;10.00;5.47;;;16.80;99.90;;;;;;5090015;28;20205;-68
2023/08/27 02:18:26;;;;;;;8.83;5.87;;;16.80;99.90;;;;;;5092050;28;20783;-68
2023/08/27 02:20:55;;;;;;;14.80;7.10;;;16.80;99.90;;;;;;5091523;28;20190;-67
2023/08/27 02:23:20;;;;;;;15.60;6.60;;;16.80;99.90;;;;;;5091059;28;20198;-67
2023/08/27 02:25:46;;;;;;;10.93;6.17;;;16.80;99.90;;;;;;5091527;28;20786;-67
2023/08/27 02:28:12;;;;;;;11.10;6.23;;;16.80;99.90;;;;;;5072853;28;20186;-68
2023/08/27 02:30:37;;;;;;;10.47;6.40;;;16.80;99.90;;;;;;5090940;28;20195;-67
2023/08/27 02:33:03;;;;;;;10.00;6.10;;;16.80;99.90;;;;;;5091120;28;20644;-67
2023/08/27 02:35:29;;;;;;;11.87;6.37;;;16.80;99.90;;;;;;5089454;28;20206;-68
2023/08/27 02:37:54;;;;;;;12.93;5.70;;;16.80;99.90;;;;;;5090910;28;20427;-67
2023/08/27 02:40:20;;;;;;;21.17;7.03;;;16.80;99.90;;;;;;5089218;28;20217;-68
2023/08/27 02:42:47;;;;;;;8.33;6.20;;;16.90;99.90;;;;;;5091155;28;20675;-68
2023/08/27 02:45:13;;;;;;;9.77;6.43;;;16.80;99.90;;;;;;5088935;28;20213;-66
2023/08/27 02:47:38;;;;;;;12.83;5.80;;;16.80;99.90;;;;;;5090409;28;20452;-67
2023/08/27 02:50:04;;;;;;;10.90;6.50;;;16.80;99.90;;;;;;5090670;28;20606;-67
2023/08/27 02:52:30;;;;;;;10.67;6.50;;;16.80;99.90;;;;;;5072181;28;20189;-67
2023/08/27 02:54:56;;;;;;;10.87;6.70;;;16.90;99.90;;;;;;5088753;28;20922;-68
2023/08/27 02:57:21;;;;;;;11.43;7.30;;;16.90;99.90;;;;;;5089029;28;20198;-68
2023/08/27 02:59:47;;;;;;;11.03;7.30;;;16.90;99.90;;;;;;5088610;28;20206;-67
2023/08/27 03:02:12;;;;;;;39.50;7.70;;;16.90;99.90;;;;;;5088724;28;20211;-67
2023/08/27 03:04:38;;;;;;;9.50;6.30;;;16.80;99.90;;;;;;5090058;28;20210;-67
2023/08/27 03:07:04;;;;;;;10.23;6.43;;;16.90;99.90;;;;;;5090128;28;20207;-67
2023/08/27 03:09:29;;;;;;;10.77;7.03;;;16.90;99.90;;;;;;5089938;28;20235;-67
2023/08/27 03:11:55;;;;;;;8.47;7.13;;;16.90;99.90;;;;;;5089890;28;20189;-67
2023/08/27 03:14:20;;;;;;;13.17;7.50;;;16.90;99.90;;;;;;5089798;28;20712;-67
2023/08/27 03:16:46;;;;;;;16.40;7.27;;;16.80;99.90;;;;;;5089779;28;20314;-67
2023/08/27 03:19:11;;;;;;;10.70;6.63;;;16.90;99.90;;;;;;5089719;28;20696;-67
2023/08/27 03:21:37;;;;;;;9.13;6.73;;;17.00;99.90;;;;;;5089711;28;20185;-67
2023/08/27 03:24:03;;;;;;;12.90;7.00;;;17.00;99.90;;;;;;5089821;28;20202;-67
2023/08/27 03:26:29;;;;;;;8.40;6.63;;;16.90;99.90;;;;;;5089676;28;20227;-67
2023/08/27 03:28:54;;;;;;;12.27;6.70;;;16.90;99.90;;;;;;5089681;28;20504;-67
2023/08/27 03:31:20;;;;;;;9.03;6.73;;;16.90;99.90;;;;;;5089471;28;20193;-67
2023/08/27 03:33:45;;;;;;;9.87;6.23;;;16.90;99.90;;;;;;5087315;28;20193;-66
2023/08/27 03:36:12;;;;;;;8.20;5.80;;;16.80;99.90;;;;;;5089486;28;20608;-67
2023/08/27 03:38:38;;;;;;;11.37;6.83;;;16.70;99.90;;;;;;5089481;28;20185;-67
2023/08/27 03:41:03;;;;;;;7.50;5.40;;;16.70;99.90;;;;;;5089441;28;20415;-67
2023/08/27 03:43:29;;;;;;;7.93;6.27;;;16.50;99.90;;;;;;5089490;28;20245;-67
2023/08/27 03:45:54;;;;;;;9.17;6.33;;;16.40;99.90;;;;;;5089108;28;20204;-67
2023/08/27 03:48:21;;;;;;;9.70;5.90;;;16.30;99.90;;;;;;5089347;28;20178;-67
2023/08/27 03:50:46;;;;;;;6.43;5.40;;;16.30;99.90;;;;;;5089453;28;20185;-67
2023/08/27 03:53:12;;;;;;;8.20;5.63;;;16.40;99.90;;;;;;5089205;28;20432;-67
2023/08/27 03:55:39;;;;;;;6.60;5.50;;;16.40;99.90;;;;;;5089102;28;20242;-67
2023/08/27 03:58:06;;;;;;;9.40;5.27;;;16.50;99.90;;;;;;5089061;28;20280;-67
2023/08/27 04:00:33;;;;;;;8.63;5.37;;;16.50;99.90;;;;;;5089023;28;20463;-67
2023/08/27 04:02:59;;;;;;;12.17;4.63;;;16.40;99.90;;;;;;5087473;28;20428;-67
2023/08/27 04:05:25;;;;;;;5.27;3.60;;;16.40;99.90;;;;;;5088932;28;20451;-67
2023/08/27 04:07:51;;;;;;;7.20;3.40;;;16.40;99.90;;;;;;5088924;28;20805;-66
2023/08/27 04:10:16;;;;;;;3.47;2.53;;;16.40;99.90;;;;;;5088941;28;20245;-67
2023/08/27 04:12:42;;;;;;;4.93;2.40;;;16.40;99.90;;;;;;5088825;28;20192;-67
2023/08/27 04:15:08;;;;;;;6.03;2.10;;;16.40;99.90;;;;;;5087290;28;20211;-67
2023/08/27 04:17:34;;;;;;;2.20;2.00;;;16.40;99.90;;;;;;5088774;28;20238;-66
2023/08/27 04:19:59;;;;;;;3.50;2.47;;;16.50;99.90;;;;;;5088680;28;20492;-67
2023/08/27 04:22:25;;;;;;;4.60;2.40;;;16.50;99.90;;;;;;5088705;28;20654;-67
2023/08/27 04:24:50;;;;;;;4.43;2.47;;;16.50;99.90;;;;;;5087135;28;20278;-66
2023/08/27 04:27:16;;;;;;;2.83;2.60;;;16.50;99.90;;;;;;5088699;28;20181;-66
2023/08/27 04:29:43;;;;;;;2.60;2.10;;;16.50;99.90;;;;;;5088532;28;20192;-68
2023/08/27 04:32:09;;;;;;;2.83;2.50;;;16.50;99.90;;;;;;5088613;28;20469;-67
2023/08/27 04:34:34;;;;;;;2.03;1.80;;;16.60;99.90;;;;;;5087109;28;20947;-68
2023/08/27 04:37:03;;;;;;;4.03;2.10;;;16.60;99.90;;;;;;5088543;28;20261;-67
2023/08/27 04:39:29;;;;;;;2.07;1.70;;;16.70;99.90;;;;;;5089017;28;20244;-67
2023/08/27 04:41:55;;;;;;;3.40;2.00;;;16.60;99.90;;;;;;5088534;28;20931;-67
2023/08/27 04:44:21;;;;;;;4.07;1.87;;;16.60;99.90;;;;;;5088371;28;20442;-67
2023/08/27 04:46:46;;;;;;;3.33;1.80;;;16.70;99.90;;;;;;5087182;28;20218;-67
2023/08/27 04:49:13;;;;;;;2.33;2.13;;;16.70;99.90;;;;;;5088631;28;20263;-67
2023/08/27 04:51:38;;;;;;;2.10;1.90;;;16.60;99.90;;;;;;5088488;28;20181;-67
2023/08/27 04:54:04;;;;;;;2.93;1.60;;;16.60;99.90;;;;;;5086971;28;20851;-67
2023/08/27 04:56:30;;;;;;;1.50;1.30;;;16.60;99.90;;;;;;5088927;28;20197;-67
2023/08/27 04:58:55;;;;;;;3.23;2.10;;;16.60;99.90;;;;;;5088767;28;20214;-67
2023/08/27 05:01:21;;;;;;;1.83;1.67;;;16.70;99.90;;;;;;5088965;28;20569;-67
2023/08/27 05:03:47;;;;;;;2.67;1.33;;;16.70;99.90;;;;;;5088988;28;20384;-67
2023/08/27 05:06:12;;;;;;;2.80;1.73;;;16.70;99.90;;;;;;5089301;28;20231;-67
2023/08/27 05:08:38;;;;;;;1.30;1.13;;;16.70;99.90;;;;;;5088815;28;20631;-67
2023/08/27 05:11:04;;;;;;;1.50;1.40;;;16.70;99.90;;;;;;5088811;28;20183;-67
2023/08/27 05:13:29;;;;;;;1.60;1.50;;;16.70;99.90;;;;;;5089190;28;20916;-67
2023/08/27 05:15:55;;;;;;;1.60;1.20;;;16.70;99.90;;;;;;5088417;28;20224;-67
2023/08/27 05:18:21;;;;;;;2.03;1.23;;;16.60;99.90;;;;;;5087078;28;20236;-67
2023/08/27 05:20:46;;;;;;;1.87;1.77;;;16.70;99.90;;;;;;5088209;28;20727;-67
2023/08/27 05:23:12;;;;;;;1.53;1.37;;;16.70;99.90;;;;;;5088241;28;20494;-67
2023/08/27 05:25:38;;;;;;;3.10;1.57;;;16.70;99.90;;;;;;5086748;28;20201;-67
2023/08/27 05:28:04;;;;;;;1.93;1.73;;;16.80;99.90;;;;;;5088181;28;20453;-67
2023/08/27 05:30:33;;;;;;;1.60;1.30;;;16.80;99.90;;;;;;5086545;28;20262;-67
2023/08/27 05:32:58;;;;;;;1.53;1.30;;;16.80;99.90;;;;;;5086727;28;20427;-67
2023/08/27 05:35:24;;;;;;;2.27;1.70;;;16.80;99.90;;;;;;5087939;28;20481;-67
2023/08/27 05:37:50;;;;;;;1.53;1.43;;;16.80;99.90;;;;;;5086497;28;20300;-67
2023/08/27 05:40:15;;;;;;;1.37;1.20;;;16.90;99.90;;;;;;5087880;28;20474;-67
2023/08/27 05:42:41;;;;;;;2.90;1.37;;;16.90;99.90;;;;;;5087907;28;20645;-67
2023/08/27 05:45:07;;;;;;;2.17;1.70;;;16.90;99.90;;;;;;5087659;28;20278;-67
2023/08/27 05:47:33;;;;;;;4.37;1.70;;;16.90;99.90;;;;;;5088161;28;20241;-69
2023/08/27 05:49:58;;;;;;;2.30;1.37;;;16.90;99.90;;;;;;5087792;28;20427;-67
2023/08/27 05:52:24;;;;;;;1.93;1.60;;;16.90;99.90;;;;;;5088089;28;20615;-67
2023/08/27 05:54:50;;;;;;;4.53;1.80;;;16.90;99.90;;;;;;5087610;28;20263;-68
2023/08/27 05:57:15;;;;;;;5.27;1.97;;;16.90;99.90;;;;;;5089768;28;20209;-67
2023/08/27 05:59:41;;;;;;;3.43;3.17;;;17.00;99.90;;;;;;5091322;28;20216;-67
2023/08/27 06:02:09;;;;;;;5.70;3.67;;;16.90;99.90;;;;;;5089936;28;20796;-67
2023/08/27 06:04:34;;;;;;;4.00;2.87;;;17.00;99.90;;;;;;5091449;28;20189;-67
2023/08/27 06:07:00;;;;;;;4.27;3.00;;;17.00;99.90;;;;;;5091306;28;20856;-67
2023/08/27 06:09:25;;;;;;;4.63;3.07;;;17.00;99.90;;;;;;5091352;28;20193;-67
2023/08/27 06:11:51;;;;;;;4.10;2.67;;;16.90;99.90;;;;;;5091449;28;20221;-68
2023/08/27 06:14:17;;;;;;;6.80;1.90;;;16.90;99.90;;;;;;5089918;28;20208;-67
2023/08/27 06:16:43;;;;;;;4.43;2.17;;;17.00;99.90;;;;;;5089925;28;20189;-68
2023/08/27 06:19:09;;;;;;;4.20;2.07;;;17.10;99.90;;;;;;5091072;28;20208;-69
2023/08/27 06:21:34;;;;;;;3.73;2.40;;;17.10;99.90;;;;;;5091185;28;20184;-67
2023/08/27 06:24:00;;;;;;;6.13;2.07;;;17.10;99.90;;;;;;5090943;28;20430;-68
2023/08/27 06:26:25;;;;;;;2.37;2.17;;;17.10;99.90;;;;;;5089425;28;20217;-68
2023/08/27 06:28:51;;;;;;;4.43;2.47;;;17.20;99.90;;;;;;5089488;28;20181;-68
2023/08/27 06:31:16;;;;;;;6.33;2.83;;;17.20;99.90;;;;;;5090771;28;20665;-68
2023/08/27 06:33:42;;;;;;;2.67;2.00;;;17.20;99.90;;;;;;5090940;28;20179;-67
2023/08/27 06:36:08;;;;;;;4.60;2.00;;;17.20;99.90;;;;;;5090707;28;20661;-68
2023/08/27 06:38:33;;;;;;;2.50;1.90;;;17.10;99.90;;;;;;5090575;28;20260;-67
2023/08/27 06:40:59;;;;;;;4.27;2.30;;;17.00;99.90;;;;;;5090677;28;20189;-67
2023/08/27 06:43:25;;;;;;;5.97;2.47;;;17.20;99.90;;;;;;5090712;28;20184;-68
2023/08/27 06:45:51;;;;;;;7.23;2.63;;;17.20;99.90;;;;;;5088942;28;20199;-68
2023/08/27 06:48:17;;;;;;;4.90;2.60;;;17.30;99.90;;;;;;5091178;28;20420;-68
2023/08/27 06:50:42;;;;;;;4.80;2.53;;;17.40;99.90;;;;;;5090631;28;20178;-68
2023/08/27 06:53:10;;;;;;;2.50;2.30;;;17.40;99.90;;;;;;5090671;28;20186;-67
2023/08/27 06:55:36;;;;;;;2.87;2.57;;;17.40;99.90;;;;;;5090608;28;20632;-68
2023/08/27 06:58:01;;;;;;;1.83;1.67;;;17.50;99.90;;;;;;5090743;28;20884;-68
2023/08/27 07:00:27;;;;;;;4.07;2.50;;;17.50;99.90;;;;;;5089949;28;20214;-68
2023/08/27 07:02:53;;;;;;;6.57;2.00;;;17.50;99.90;;;;;;5089643;28;20273;-68
2023/08/27 07:05:19;;;;;;;4.40;2.40;;;17.50;99.90;;;;;;5089300;28;20756;-68
2023/08/27 07:07:45;;;;;;;3.00;2.07;;;17.60;99.90;;;;;;5088571;28;20403;-68
2023/08/27 07:10:12;;;;;;;3.87;2.30;;;17.60;99.90;;;;;;5088514;28;20414;-68
2023/08/27 07:12:37;;;;;;;3.30;2.00;;;17.60;99.90;;;;;;5088637;28;20419;-68
2023/08/27 07:15:04;;;;;;;4.13;1.80;;;17.60;99.90;;;;;;5086888;28;20451;-68
2023/08/27 07:17:32;;;;;;;4.10;1.93;;;17.70;99.90;;;;;;5087269;28;20562;-68
2023/08/27 07:20:04;;;;;;;5.33;2.17;;;17.70;99.90;;;;;;5088128;28;20496;-67
2023/08/27 07:22:29;;;;;;;3.30;1.83;;;17.80;99.90;;;;;;5088316;28;20417;-68
2023/08/27 07:24:55;;;;;;;3.10;2.10;;;17.80;99.90;;;;;;5088152;28;20541;-68
2023/08/27 07:27:21;;;;;;;4.30;2.20;;;17.90;99.90;;;;;;5070154;28;20184;-67
2023/08/27 07:29:47;;;;;;;4.80;1.87;;;18.00;99.90;;;;;;5088574;28;20475;-68
2023/08/27 07:32:12;;;;;;;2.87;1.90;;;18.00;99.90;;;;;;5088277;28;20195;-68
2023/08/27 07:34:38;;;;;;;4.23;1.83;;;18.00;99.90;;;;;;5087912;28;20541;-68
2023/08/27 07:37:04;;;;;;;1.70;1.60;;;17.90;99.90;;;;;;5086779;28;20187;-68
2023/08/27 07:39:29;;;;;;;1.73;1.53;;;17.90;99.90;;;;;;5088383;28;20208;-68
2023/08/27 07:41:55;;;;;;;2.60;2.00;;;17.90;99.90;;;;;;5087958;28;20188;-67
2023/08/27 07:44:20;;;;;;;2.70;1.77;;;17.90;99.90;;;;;;5087792;28;20204;-68
2023/08/27 07:46:46;;;;;;;3.40;2.47;;;17.90;99.90;;;;;;5087891;28;20186;-68
2023/08/27 07:49:12;;;;;;;4.10;2.00;;;18.00;99.90;;;;;;5088130;28;20208;-68
2023/08/27 07:51:37;;;;;;;4.77;1.90;;;18.00;99.90;;;;;;5086401;28;20231;-68
2023/08/27 07:54:03;;;;;;;3.63;1.63;;;18.00;99.90;;;;;;5087560;28;20229;-68
2023/08/27 07:56:29;;;;;;;4.63;2.20;;;18.00;99.90;;;;;;5087869;28;20813;-68
2023/08/27 07:58:55;;;;;;;4.57;2.00;;;18.00;99.90;;;;;;5087551;28;20420;-68
2023/08/27 08:01:20;;;;;;;3.97;1.93;;;18.10;99.90;;;;;;5086171;28;20560;-68
2023/08/27 08:03:46;;;;;;;3.13;1.73;;;18.00;99.90;;;;;;5087534;28;20299;-67
2023/08/27 08:06:12;;;;;;;3.00;2.13;;;18.00;99.90;;;;;;5087700;28;20226;-68
2023/08/27 08:08:38;;;;;;;6.90;1.60;;;17.90;99.90;;;;;;5086045;28;20188;-68
2023/08/27 08:11:04;;;;;;;2.00;1.80;;;17.90;99.90;;;;;;5087490;28;20413;-68
2023/08/27 08:13:29;;;;;;;2.07;1.87;;;18.00;99.90;;;;;;5087502;28;20531;-68
2023/08/27 08:15:55;;;;;;;1.97;1.77;;;18.10;99.90;;;;;;5087249;28;20286;-68
2023/08/27 08:18:20;;;;;;;3.13;2.83;;;18.20;99.90;;;;;;5087567;28;20190;-68
2023/08/27 08:20:47;;;;;;;5.00;2.87;;;18.20;99.90;;;;;;5086990;28;21044;-68
2023/08/27 08:23:13;;;;;;;2.60;1.77;;;18.20;99.90;;;;;;5085755;28;20570;-68
2023/08/27 08:25:42;;;;;;;4.50;2.07;;;18.20;99.90;;;;;;5087290;28;20859;-68
2023/08/27 08:28:08;;;;;;;2.53;1.90;;;18.10;99.90;;;;;;5087167;28;20966;-68
2023/08/27 08:30:34;;;;;;;6.70;1.80;;;18.10;99.90;;;;;;5068765;28;20440;-68
2023/08/27 08:33:00;;;;;;;2.40;1.80;;;18.00;99.90;;;;;;5087028;28;20217;-68
2023/08/27 08:35:26;;;;;;;4.57;1.87;;;18.10;99.90;;;;;;5087272;28;20521;-68
2023/08/27 08:37:53;;;;;;;2.83;2.20;;;18.10;99.90;;;;;;5087163;28;20184;-68
2023/08/27 08:40:18;;;;;;;2.53;2.20;;;18.10;99.90;;;;;;5087074;28;20516;-68
2023/08/27 08:42:59;;;;;;;2.33;1.57;;;18.10;99.90;;;;;;5085962;28;20440;-68
2023/08/27 08:45:42;;;;;;;2.70;1.90;;;18.10;99.90;;;;;;5087427;28;20300;-68
2023/08/27 08:48:11;;;;;;;6.20;2.10;;;18.20;99.90;;;;;;5087851;28;20431;-67
2023/08/27 08:50:40;;;;;;;9.00;2.20;;;18.20;99.90;;;;;;5086428;28;20435;-67
2023/08/27 08:53:27;;;;;;;1.73;1.63;;;18.20;99.90;;;;;;5087918;28;20932;-67
2023/08/27 08:55:58;;;;;;;3.20;2.43;;;18.40;99.90;;;;;;5087421;28;20573;-69
2023/08/27 08:58:28;;;;;;;2.97;1.80;;;18.40;99.90;;;;;;5087263;28;20776;-68
2023/08/27 09:00:55;;;;;;;3.03;1.93;;;18.50;99.90;;;;;;5086168;28;20986;-68
2023/08/27 09:03:22;;;;;;;2.40;1.70;;;18.60;99.90;;;;;;5087667;28;20420;-67
2023/08/27 09:05:51;;;;;;;3.13;2.00;;;18.60;99.90;;;;;;5086059;28;20806;-68
2023/08/27 09:08:19;;;;;;;2.23;2.03;;;18.70;99.90;;;;;;5087698;28;20409;-68
2023/08/27 09:10:47;;;;;;;3.37;2.00;;;18.70;99.90;;;;;;5087421;28;20490;-70
2023/08/27 09:13:17;;;;;;;6.00;2.10;;;18.70;99.90;;;;;;5085997;28;20432;-68
2023/08/27 09:15:43;;;;;;;2.90;1.97;;;18.80;99.90;;;;;;5087207;28;21040;-68
2023/08/27 09:18:09;;;;;;;2.10;1.90;;;18.80;99.90;;;;;;5069225;28;20455;-68
2023/08/27 09:20:36;;;;;;;3.00;1.63;;;18.80;99.90;;;;;;5087221;28;20558;-68
2023/08/27 09:23:02;;;;;;;2.50;1.80;;;18.90;99.90;;;;;;5087143;28;20330;-68
2023/08/27 09:25:27;;;;;;;4.40;2.27;;;18.90;99.90;;;;;;5085509;28;21046;-68
2023/08/27 09:27:53;;;;;;;3.40;1.87;;;19.00;99.90;;;;;;5087129;28;20193;-68
2023/08/27 09:30:21;;;;;;;3.40;1.90;;;19.00;99.90;;;;;;5087560;28;20250;-68
2023/08/27 09:32:47;;;;;;;2.63;2.10;;;18.90;99.90;;;;;;5089849;28;20436;-68
2023/08/27 09:35:13;;;;;;;3.60;2.23;;;18.90;99.90;;;;;;5089484;28;20840;-68
2023/08/27 09:37:40;;;;;;;5.10;2.10;;;18.80;99.90;;;;;;5090983;28;20423;-68
2023/08/27 09:40:07;;;;;;;4.13;2.20;;;18.70;99.90;;;;;;5090614;28;20227;-67
2023/08/27 09:42:33;;;;;;;3.23;2.53;;;18.60;99.90;;;;;;5090817;28;20416;-67
2023/08/27 09:44:59;;;;;;;4.77;2.80;;;18.70;99.90;;;;;;5090462;28;20427;-67
2023/08/27 09:47:34;;;;;;;3.10;2.20;;;18.80;99.90;;;;;;5088795;28;20182;-67
2023/08/27 09:50:02;;;;;;;3.03;2.60;;;18.90;99.90;;;;;;5090295;28;20978;-67
2023/08/27 09:52:28;;;;;;;5.07;2.73;;;19.00;99.90;;;;;;5090096;28;20419;-67
2023/08/27 09:54:53;;;;;;;5.90;2.47;;;19.00;99.90;;;;;;5090005;28;20456;-67
2023/08/27 09:57:20;;;;;;;3.00;2.23;;;19.00;99.90;;;;;;5090918;28;20192;-68
2023/08/27 09:59:46;;;;;;;8.00;2.60;;;19.00;99.90;;;;;;5090156;28;20270;-67
2023/08/27 10:02:13;;;;;;;3.37;2.83;;;18.90;99.90;;;;;;5090103;28;20916;-67
2023/08/27 10:04:54;;;;;;;4.30;2.50;;;18.80;99.90;;;;;;5090302;28;20288;-67
2023/08/27 10:07:21;;;;;;;3.03;2.30;;;18.90;99.90;;;;;;5088708;28;20416;-67
2023/08/27 10:09:51;;;;;;;3.87;2.50;;;18.80;99.90;;;;;;5090637;28;20408;-68
2023/08/27 10:12:18;;;;;;;3.03;2.43;;;18.80;99.90;;;;;;5089060;28;20423;-67
2023/08/27 10:14:45;;;;;;;3.67;3.17;;;18.80;99.90;;;;;;5088795;28;20436;-67
2023/08/27 10:17:12;;;;;;;4.80;2.70;;;18.90;99.90;;;;;;5089705;28;20515;-67
2023/08/27 10:19:38;;;;;;;2.67;2.43;;;19.00;99.90;;;;;;5089561;28;20485;-67
2023/08/27 10:22:05;;;;;;;2.13;1.93;;;19.00;99.90;;;;;;5089570;28;20784;-68
2023/08/27 10:24:32;;;;;;;2.47;2.27;;;18.90;99.90;;;;;;5087957;28;20966;-68
2023/08/27 10:26:59;;;;;;;3.43;2.30;;;18.90;99.90;;;;;;5089970;28;20416;-68
2023/08/27 10:29:26;;;;;;;2.20;2.00;;;18.90;99.90;;;;;;5088415;28;20420;-68
2023/08/27 10:31:56;;;;;;;2.00;1.83;;;19.00;99.90;;;;;;5090113;28;20807;-68
2023/08/27 10:34:23;;;;;;;3.47;1.80;;;19.10;99.90;;;;;;5089955;28;20435;-68
2023/08/27 10:36:51;;;;;;;2.20;1.80;;;19.10;99.90;;;;;;5090243;28;20408;-69
2023/08/27 10:39:20;;;;;;;2.27;2.07;;;19.10;99.90;;;;;;5090025;28;20467;-68
2023/08/27 10:41:46;;;;;;;2.17;1.90;;;19.10;99.90;;;;;;5088695;28;20428;-68
2023/08/27 10:44:20;;;;;;;3.70;1.93;;;18.90;99.90;;;;;;5090260;28;20509;-67
2023/08/27 10:47:14;;;;;;;2.47;1.63;;;18.90;99.90;;;;;;5090234;28;20726;-68
2023/08/27 10:49:41;;;;;;;3.60;2.20;;;19.00;99.90;;;;;;5088385;28;20413;-68
2023/08/27 10:52:25;;;;;;;3.70;1.70;;;18.90;99.90;;;;;;5089806;28;20465;-68
2023/08/27 10:54:59;;;;;;;2.07;1.87;;;19.00;99.90;;;;;;5089471;28;20467;-68
2023/08/27 10:57:25;;;;;;;2.70;1.90;;;19.00;99.90;;;;;;5089882;28;20442;-68
2023/08/27 11:00:05;;;;;;;2.20;1.93;;;19.00;99.90;;;;;;5088248;28;20491;-68
2023/08/27 11:02:56;;;;;;;2.20;1.67;;;19.10;99.90;;;;;;5089247;28;20187;-68
2023/08/27 11:05:30;;;;;;;2.13;1.83;;;19.10;99.90;;;;;;5089159;28;21022;-68
2023/08/27 11:07:59;;;;;;;2.60;2.00;;;19.00;99.90;;;;;;5088665;28;20412;-68
2023/08/27 11:10:32;;;;;;;2.80;1.53;;;19.00;99.90;;;;;;5088892;28;20505;-68
2023/08/27 11:12:58;;;;;;;2.33;2.13;;;19.00;99.90;;;;;;5089102;28;20511;-68
2023/08/27 11:15:31;;;;;;;1.60;1.50;;;19.10;99.90;;;;;;5088656;28;20436;-68
2023/08/27 11:17:57;;;;;;;2.03;1.83;;;19.10;99.90;;;;;;5088839;28;20765;-68
2023/08/27 11:20:25;;;;;;;4.40;2.10;;;19.20;99.90;;;;;;5088385;28;21028;-68
2023/08/27 11:23:02;;;;;;;3.57;1.70;;;19.20;99.90;;;;;;5086913;28;20425;-68
2023/08/27 11:25:29;;;;;;;3.30;2.10;;;19.20;99.90;;;;;;5086892;28;20906;-68
2023/08/27 11:27:59;;;;;;;2.27;1.60;;;19.20;99.90;;;;;;5088307;28;20481;-69
2023/08/27 11:30:25;;;;;;;2.37;1.83;;;19.40;99.90;;;;;;5088334;28;20518;-68
2023/08/27 11:32:53;;;;;;;5.80;2.00;;;19.60;99.90;;;;;;5088556;28;20424;-68
2023/08/27 11:35:26;;;;;;;3.10;1.63;;;19.60;99.90;;;;;;5088187;28;20440;-68
2023/08/27 11:37:52;;;;;;;1.90;1.80;;;19.70;99.90;;;;;;5086573;28;20482;-68
2023/08/27 11:40:22;;;;;;;3.50;2.20;;;19.80;99.90;;;;;;5087966;28;20547;-68
2023/08/27 11:42:52;;;;;;;3.47;1.63;;;19.90;99.90;;;;;;5088620;28;20190;-68
2023/08/27 11:45:27;;;;;;;2.93;1.93;;;20.00;99.90;;;;;;5087911;28;20435;-68
2023/08/27 11:47:53;;;;;;;2.67;1.80;;;20.10;99.90;;;;;;5088263;28;20408;-68
2023/08/27 11:50:21;;;;;;;4.93;2.23;;;20.00;99.90;;;;;;5087800;28;20419;-68
2023/08/27 11:52:47;;;;;;;2.40;1.10;;;20.00;99.90;;;;;;5088000;28;20746;-68
2023/08/27 11:55:13;;;;;;;3.20;1.90;;;20.00;99.90;;;;;;5086941;28;20559;-68
2023/08/27 11:57:39;;;;;;;4.10;1.47;;;20.00;99.90;;;;;;5087762;28;20205;-68
2023/08/27 12:00:11;;;;;;;2.03;1.50;;;20.00;99.90;;;;;;5087696;28;20962;-68
2023/08/27 12:02:38;;;;;;;1.93;1.73;;;19.90;99.90;;;;;;5087457;28;20597;-68
2023/08/27 12:05:05;;;;;;;3.43;1.73;;;19.90;99.90;;;;;;5087659;28;20449;-68
2023/08/27 12:07:32;;;;;;;1.30;1.20;;;19.90;99.90;;;;;;5087695;28;20419;-68
2023/08/27 12:10:01;;;;;;;1.63;1.50;;;19.90;99.90;;;;;;5086142;28;20487;-68
2023/08/27 12:12:27;;;;;;;2.10;1.57;;;19.90;99.90;;;;;;5087591;28;20462;-68
2023/08/27 12:14:53;;;;;;;1.70;1.30;;;19.90;99.90;;;;;;5087767;28;20448;-68
2023/08/27 12:17:20;;;;;;;2.13;1.40;;;19.80;99.90;;;;;;5087540;28;20425;-67
2023/08/27 12:19:47;;;;;;;2.77;1.47;;;19.80;99.90;;;;;;5087569;28;20337;-69
2023/08/27 12:22:17;;;;;;;4.93;1.93;;;19.80;99.90;;;;;;5087734;28;20975;-69
2023/08/27 12:24:44;;;;;;;3.50;1.40;;;19.70;99.90;;;;;;5087758;28;21008;-68
2023/08/27 12:27:14;;;;;;;6.53;1.50;;;19.70;99.90;;;;;;5086190;28;20421;-69
2023/08/27 12:29:41;;;;;;;3.50;1.80;;;19.80;99.90;;;;;;5087985;28;20420;-68
2023/08/27 12:32:16;;;;;;;3.03;1.50;;;19.80;99.90;;;;;;5087996;28;20427;-68
2023/08/27 12:34:49;;;;;;;7.10;2.10;;;19.80;99.90;;;;;;5087796;28;20806;-69
2023/08/27 12:37:17;;;;;;;2.90;1.50;;;19.80;99.90;;;;;;5069348;28;20424;-69
2023/08/27 12:39:44;;;;;;;2.70;1.33;;;19.80;99.90;;;;;;5087171;28;20507;-68
2023/08/27 12:42:11;;;;;;;7.50;2.17;;;19.90;99.90;;;;;;5087998;28;20409;-67
2023/08/27 12:44:37;;;;;;;5.37;1.53;;;19.80;99.90;;;;;;5087770;28;20448;-68